sensor_id;sensor_type;location;lat;lon;timestamp;P1;durP1;ratioP1;P2;durP2;ratioP2
78013;SDS011;67222;50.182;8.734;2024-01-15T05:30:38;12.40;;;4.03;;
78013;SDS011;67222;50.182;8.734;2024-01-15T05:33:04;11.10;;;4.67;;
78013;SDS011;67222;50.182;8.734;2024-01-15T05:35:29;14.40;;;4.30;;
78013;SDS011;67222;50.182;8.734;2024-01-15T05:37:54;13.40;;;4.83;;
78013;SDS011;67222;50.182;8.734;2024-01-15T05:40:20;15.20;;;5.20;;
78013;SDS011;67222;50.182;8.734;2024-01-15T05:42:45;12.77;;;5.47;;
78013;SDS011;67222;50.182;8.734;2024-01-15T05:45:10;14.03;;;5.40;;
78013;SDS011;67222;50.182;8.734;2024-01-15T05:47:35;13.20;;;4.67;;
78013;SDS011;67222;50.182;8.734;2024-01-15T05:50:01;11.53;;;5.13;;
78013;SDS011;67222;50.182;8.734;2024-01-15T05:52:27;14.10;;;5.70;;
78013;SDS011;67222;50.182;8.734;2024-01-15T05:54:52;11.63;;;4.57;;
78013;SDS011;67222;50.182;8.734;2024-01-15T05:57:17;9.70;;;4.37;;
78013;SDS011;67222;50.182;8.734;2024-01-15T05:59:44;14.77;;;5.53;;
78013;SDS011;67222;50.182;8.734;2024-01-15T06:02:09;13.35;;;4.93;;
78013;SDS011;67222;50.182;8.734;2024-01-15T06:04:34;11.40;;;4.07;;
78013;SDS011;67222;50.182;8.734;2024-01-15T06:07:00;7.47;;;2.50;;
78013;SDS011;67222;50.182;8.734;2024-01-15T06:09:25;17.20;;;6.88;;
78013;SDS011;67222;50.182;8.734;2024-01-15T06:11:51;14.50;;;5.57;;
78013;SDS011;67222;50.182;8.734;2024-01-15T06:14:16;15.80;;;5.35;;
78013;SDS011;67222;50.182;8.734;2024-01-15T06:16:42;13.47;;;4.43;;
78013;SDS011;67222;50.182;8.734;2024-01-15T06:19:07;14.77;;;6.10;;
78013;SDS011;67222;50.182;8.734;2024-01-15T06:21:32;11.17;;;4.37;;
78013;SDS011;67222;50.182;8.734;2024-01-15T06:23:57;15.60;;;5.87;;
78013;SDS011;67222;50.182;8.734;2024-01-15T06:26:23;6.50;;;2.43;;
78013;SDS011;67222;50.182;8.734;2024-01-15T06:28:48;13.83;;;4.90;;
78013;SDS011;67222;50.182;8.734;2024-01-15T06:31:14;13.77;;;6.40;;
78013;SDS011;67222;50.182;8.734;2024-01-15T06:33:39;16.30;;;4.77;;
78013;SDS011;67222;50.182;8.734;2024-01-15T06:36:05;17.17;;;6.53;;
78013;SDS011;67222;50.182;8.734;2024-01-15T06:38:31;14.93;;;5.30;;
78013;SDS011;67222;50.182;8.734;2024-01-15T06:40:56;12.57;;;5.93;;
78013;SDS011;67222;50.182;8.734;2024-01-15T06:43:21;12.03;;;4.80;;
78013;SDS011;67222;50.182;8.734;2024-01-15T06:45:47;10.23;;;3.83;;
78013;SDS011;67222;50.182;8.734;2024-01-15T06:48:12;11.33;;;4.97;;
78013;SDS011;67222;50.182;8.734;2024-01-15T06:50:39;15.95;;;6.22;;
78013;SDS011;67222;50.182;8.734;2024-01-15T06:53:05;15.23;;;6.05;;
78013;SDS011;67222;50.182;8.734;2024-01-15T06:55:30;17.33;;;5.93;;
78013;SDS011;67222;50.182;8.734;2024-01-15T06:57:55;14.82;;;6.15;;
78013;SDS011;67222;50.182;8.734;2024-01-15T07:00:21;12.87;;;4.83;;
78013;SDS011;67222;50.182;8.734;2024-01-15T07:02:46;13.88;;;5.18;;
78013;SDS011;67222;50.182;8.734;2024-01-15T07:05:11;15.30;;;5.57;;
78013;SDS011;67222;50.182;8.734;2024-01-15T07:07:37;13.95;;;5.25;;
78013;SDS011;67222;50.182;8.734;2024-01-15T07:10:02;17.30;;;5.27;;
78013;SDS011;67222;50.182;8.734;2024-01-15T07:12:28;13.80;;;5.53;;
78013;SDS011;67222;50.182;8.734;2024-01-15T07:14:54;17.77;;;5.00;;
78013;SDS011;67222;50.182;8.734;2024-01-15T07:17:21;12.38;;;4.28;;
78013;SDS011;67222;50.182;8.734;2024-01-15T07:19:46;12.90;;;5.87;;
78013;SDS011;67222;50.182;8.734;2024-01-15T07:22:11;14.23;;;4.93;;
78013;SDS011;67222;50.182;8.734;2024-01-15T07:24:37;14.98;;;4.82;;
78013;SDS011;67222;50.182;8.734;2024-01-15T07:27:02;17.60;;;5.73;;
78013;SDS011;67222;50.182;8.734;2024-01-15T07:29:29;13.07;;;5.90;;
78013;SDS011;67222;50.182;8.734;2024-01-15T07:31:55;15.88;;;5.07;;
78013;SDS011;67222;50.182;8.734;2024-01-15T07:34:20;17.98;;;5.65;;
78013;SDS011;67222;50.182;8.734;2024-01-15T07:36:46;11.38;;;3.85;;
78013;SDS011;67222;50.182;8.734;2024-01-15T07:39:12;6.88;;;2.42;;
78013;SDS011;67222;50.182;8.734;2024-01-15T07:41:38;14.93;;;4.05;;
78013;SDS011;67222;50.182;8.734;2024-01-15T07:44:04;14.38;;;5.55;;
78013;SDS011;67222;50.182;8.734;2024-01-15T07:46:30;14.07;;;5.43;;
78013;SDS011;67222;50.182;8.734;2024-01-15T07:48:55;11.68;;;4.22;;
78013;SDS011;67222;50.182;8.734;2024-01-15T07:51:22;14.93;;;5.38;;
78013;SDS011;67222;50.182;8.734;2024-01-15T07:53:50;14.18;;;6.20;;
78013;SDS011;67222;50.182;8.734;2024-01-15T07:56:18;16.05;;;5.85;;
78013;SDS011;67222;50.182;8.734;2024-01-15T07:58:43;15.47;;;6.03;;
78013;SDS011;67222;50.182;8.734;2024-01-15T08:01:09;15.82;;;5.40;;
78013;SDS011;67222;50.182;8.734;2024-01-15T08:03:34;16.20;;;5.70;;
78013;SDS011;67222;50.182;8.734;2024-01-15T08:05:59;10.63;;;4.30;;
78013;SDS011;67222;50.182;8.734;2024-01-15T08:08:25;15.65;;;5.80;;
78013;SDS011;67222;50.182;8.734;2024-01-15T08:10:53;14.07;;;5.57;;
78013;SDS011;67222;50.182;8.734;2024-01-15T08:13:19;14.75;;;6.22;;
78013;SDS011;67222;50.182;8.734;2024-01-15T08:15:45;13.30;;;5.82;;
78013;SDS011;67222;50.182;8.734;2024-01-15T08:18:10;15.07;;;5.50;;
78013;SDS011;67222;50.182;8.734;2024-01-15T08:20:35;12.43;;;4.80;;
78013;SDS011;67222;50.182;8.734;2024-01-15T08:23:01;6.63;;;3.15;;
78013;SDS011;67222;50.182;8.734;2024-01-15T08:25:26;15.70;;;5.50;;
78013;SDS011;67222;50.182;8.734;2024-01-15T08:27:51;14.40;;;5.93;;
78013;SDS011;67222;50.182;8.734;2024-01-15T08:30:17;13.63;;;5.45;;
78013;SDS011;67222;50.182;8.734;2024-01-15T08:32:43;14.93;;;5.18;;
78013;SDS011;67222;50.182;8.734;2024-01-15T08:35:09;20.40;;;7.05;;
78013;SDS011;67222;50.182;8.734;2024-01-15T08:37:35;10.63;;;4.03;;
78013;SDS011;67222;50.182;8.734;2024-01-15T08:40:00;14.55;;;5.53;;
78013;SDS011;67222;50.182;8.734;2024-01-15T08:42:26;20.40;;;6.47;;
78013;SDS011;67222;50.182;8.734;2024-01-15T08:44:51;9.50;;;4.27;;
78013;SDS011;67222;50.182;8.734;2024-01-15T08:47:16;19.20;;;7.10;;
78013;SDS011;67222;50.182;8.734;2024-01-15T08:49:42;15.50;;;5.70;;
78013;SDS011;67222;50.182;8.734;2024-01-15T08:52:09;10.55;;;5.03;;
78013;SDS011;67222;50.182;8.734;2024-01-15T08:54:34;14.90;;;5.68;;
78013;SDS011;67222;50.182;8.734;2024-01-15T08:57:00;18.50;;;5.93;;
78013;SDS011;67222;50.182;8.734;2024-01-15T08:59:25;16.80;;;6.32;;
78013;SDS011;67222;50.182;8.734;2024-01-15T09:01:51;12.80;;;5.97;;
78013;SDS011;67222;50.182;8.734;2024-01-15T09:04:17;20.05;;;7.05;;
78013;SDS011;67222;50.182;8.734;2024-01-15T09:06:44;18.67;;;7.57;;
78013;SDS011;67222;50.182;8.734;2024-01-15T09:09:11;20.00;;;6.10;;
78013;SDS011;67222;50.182;8.734;2024-01-15T09:11:37;14.00;;;5.40;;
78013;SDS011;67222;50.182;8.734;2024-01-15T09:14:02;18.95;;;6.53;;
78013;SDS011;67222;50.182;8.734;2024-01-15T09:16:28;16.23;;;6.18;;
78013;SDS011;67222;50.182;8.734;2024-01-15T09:18:53;12.45;;;5.30;;
78013;SDS011;67222;50.182;8.734;2024-01-15T09:21:18;14.03;;;5.70;;
78013;SDS011;67222;50.182;8.734;2024-01-15T09:23:44;16.30;;;6.03;;
78013;SDS011;67222;50.182;8.734;2024-01-15T09:26:09;12.67;;;5.97;;
78013;SDS011;67222;50.182;8.734;2024-01-15T09:28:34;14.10;;;5.83;;
78013;SDS011;67222;50.182;8.734;2024-01-15T09:30:59;13.18;;;5.90;;
78013;SDS011;67222;50.182;8.734;2024-01-15T09:33:25;14.43;;;5.63;;
78013;SDS011;67222;50.182;8.734;2024-01-15T09:35:50;11.75;;;5.20;;
78013;SDS011;67222;50.182;8.734;2024-01-15T09:38:15;14.90;;;5.80;;
78013;SDS011;67222;50.182;8.734;2024-01-15T09:40:43;14.88;;;5.50;;
78013;SDS011;67222;50.182;8.734;2024-01-15T09:43:10;8.43;;;3.70;;
78013;SDS011;67222;50.182;8.734;2024-01-15T09:45:37;13.32;;;5.43;;
78013;SDS011;67222;50.182;8.734;2024-01-15T09:48:03;10.80;;;4.70;;
78013;SDS011;67222;50.182;8.734;2024-01-15T09:50:28;7.85;;;3.13;;
78013;SDS011;67222;50.182;8.734;2024-01-15T09:52:54;12.90;;;5.82;;
78013;SDS011;67222;50.182;8.734;2024-01-15T09:55:19;7.97;;;4.20;;
78013;SDS011;67222;50.182;8.734;2024-01-15T09:57:45;12.48;;;4.78;;
78013;SDS011;67222;50.182;8.734;2024-01-15T10:00:11;7.43;;;3.35;;
78013;SDS011;67222;50.182;8.734;2024-01-15T10:02:37;16.55;;;5.70;;
78013;SDS011;67222;50.182;8.734;2024-01-15T10:05:02;16.35;;;5.32;;
78013;SDS011;67222;50.182;8.734;2024-01-15T10:07:28;13.75;;;5.53;;
78013;SDS011;67222;50.182;8.734;2024-01-15T10:09:54;17.58;;;5.63;;
78013;SDS011;67222;50.182;8.734;2024-01-15T10:12:21;13.07;;;5.05;;
78013;SDS011;67222;50.182;8.734;2024-01-15T10:14:47;8.93;;;3.33;;
78013;SDS011;67222;50.182;8.734;2024-01-15T10:17:14;11.20;;;5.10;;
78013;SDS011;67222;50.182;8.734;2024-01-15T10:19:43;15.85;;;6.25;;
78013;SDS011;67222;50.182;8.734;2024-01-15T10:22:12;13.45;;;5.00;;
78013;SDS011;67222;50.182;8.734;2024-01-15T10:24:40;14.38;;;5.15;;
78013;SDS011;67222;50.182;8.734;2024-01-15T10:27:06;13.77;;;5.43;;
78013;SDS011;67222;50.182;8.734;2024-01-15T10:29:35;9.43;;;4.38;;
78013;SDS011;67222;50.182;8.734;2024-01-15T10:32:01;11.50;;;4.95;;
78013;SDS011;67222;50.182;8.734;2024-01-15T10:34:39;10.98;;;4.65;;
78013;SDS011;67222;50.182;8.734;2024-01-15T10:37:06;8.07;;;3.70;;
78013;SDS011;67222;50.182;8.734;2024-01-15T10:39:32;11.32;;;4.75;;
78013;SDS011;67222;50.182;8.734;2024-01-15T10:41:58;9.95;;;4.28;;
78013;SDS011;67222;50.182;8.734;2024-01-15T10:44:24;8.40;;;3.80;;
78013;SDS011;67222;50.182;8.734;2024-01-15T10:46:50;10.88;;;4.47;;
78013;SDS011;67222;50.182;8.734;2024-01-15T10:49:16;14.82;;;5.40;;
78013;SDS011;67222;50.182;8.734;2024-01-15T10:51:43;11.02;;;4.50;;
78013;SDS011;67222;50.182;8.734;2024-01-15T10:54:09;7.65;;;3.70;;
78013;SDS011;67222;50.182;8.734;2024-01-15T10:56:36;10.77;;;4.13;;
78013;SDS011;67222;50.182;8.734;2024-01-15T10:59:02;14.05;;;4.97;;
78013;SDS011;67222;50.182;8.734;2024-01-15T11:01:29;10.57;;;4.60;;
78013;SDS011;67222;50.182;8.734;2024-01-15T11:03:56;10.77;;;4.15;;
78013;SDS011;67222;50.182;8.734;2024-01-15T11:06:24;13.02;;;4.70;;
78013;SDS011;67222;50.182;8.734;2024-01-15T11:08:52;10.07;;;4.53;;
78013;SDS011;67222;50.182;8.734;2024-01-15T11:11:18;11.13;;;4.68;;
78013;SDS011;67222;50.182;8.734;2024-01-15T11:13:46;10.93;;;4.65;;
78013;SDS011;67222;50.182;8.734;2024-01-15T11:16:13;12.75;;;5.13;;
78013;SDS011;67222;50.182;8.734;2024-01-15T11:18:42;12.27;;;5.13;;
78013;SDS011;67222;50.182;8.734;2024-01-15T11:21:26;14.75;;;5.47;;
78013;SDS011;67222;50.182;8.734;2024-01-15T11:23:53;11.80;;;4.22;;
78013;SDS011;67222;50.182;8.734;2024-01-15T11:26:44;10.90;;;4.70;;
78013;SDS011;67222;50.182;8.734;2024-01-15T11:29:10;11.65;;;4.90;;
78013;SDS011;67222;50.182;8.734;2024-01-15T11:34:20;10.87;;;4.73;;
78013;SDS011;67222;50.182;8.734;2024-01-15T11:41:51;10.60;;;3.90;;
78013;SDS011;67222;50.182;8.734;2024-01-15T11:44:17;10.27;;;4.30;;
78013;SDS011;67222;50.182;8.734;2024-01-15T11:46:43;12.77;;;4.73;;
78013;SDS011;67222;50.182;8.734;2024-01-15T11:49:29;10.68;;;4.55;;
78013;SDS011;67222;50.182;8.734;2024-01-15T11:52:20;11.98;;;4.82;;
78013;SDS011;67222;50.182;8.734;2024-01-15T11:57:41;11.20;;;5.25;;
78013;SDS011;67222;50.182;8.734;2024-01-15T12:00:18;8.77;;;3.08;;
78013;SDS011;67222;50.182;8.734;2024-01-15T12:02:45;9.02;;;4.15;;
78013;SDS011;67222;50.182;8.734;2024-01-15T12:05:13;7.50;;;3.63;;
78013;SDS011;67222;50.182;8.734;2024-01-15T12:07:43;10.55;;;3.95;;
78013;SDS011;67222;50.182;8.734;2024-01-15T12:10:10;12.00;;;4.25;;
78013;SDS011;67222;50.182;8.734;2024-01-15T12:12:39;12.20;;;5.93;;
78013;SDS011;67222;50.182;8.734;2024-01-15T12:15:07;5.53;;;3.03;;
78013;SDS011;67222;50.182;8.734;2024-01-15T12:17:33;6.57;;;2.70;;
78013;SDS011;67222;50.182;8.734;2024-01-15T12:19:59;9.68;;;4.10;;
78013;SDS011;67222;50.182;8.734;2024-01-15T12:22:25;11.05;;;4.35;;
78013;SDS011;67222;50.182;8.734;2024-01-15T12:24:52;9.68;;;4.55;;
78013;SDS011;67222;50.182;8.734;2024-01-15T12:27:17;9.02;;;4.03;;
78013;SDS011;67222;50.182;8.734;2024-01-15T12:29:43;8.77;;;4.07;;
78013;SDS011;67222;50.182;8.734;2024-01-15T12:32:08;11.70;;;4.37;;
78013;SDS011;67222;50.182;8.734;2024-01-15T12:34:34;3.97;;;2.05;;
78013;SDS011;67222;50.182;8.734;2024-01-15T12:36:59;8.47;;;3.17;;
78013;SDS011;67222;50.182;8.734;2024-01-15T12:39:24;6.73;;;2.90;;
78013;SDS011;67222;50.182;8.734;2024-01-15T12:41:50;9.07;;;3.83;;
78013;SDS011;67222;50.182;8.734;2024-01-15T12:44:16;8.65;;;4.05;;
78013;SDS011;67222;50.182;8.734;2024-01-15T12:46:41;8.25;;;3.90;;
78013;SDS011;67222;50.182;8.734;2024-01-15T12:49:07;10.43;;;3.75;;
78013;SDS011;67222;50.182;8.734;2024-01-15T12:51:36;4.88;;;2.65;;
78013;SDS011;67222;50.182;8.734;2024-01-15T12:54:01;6.70;;;3.13;;
78013;SDS011;67222;50.182;8.734;2024-01-15T12:56:27;8.68;;;3.72;;
78013;SDS011;67222;50.182;8.734;2024-01-15T12:58:52;7.87;;;3.00;;
78013;SDS011;67222;50.182;8.734;2024-01-15T13:01:17;6.60;;;3.00;;
78013;SDS011;67222;50.182;8.734;2024-01-15T13:03:43;5.47;;;2.75;;
78013;SDS011;67222;50.182;8.734;2024-01-15T13:06:08;5.67;;;3.37;;
78013;SDS011;67222;50.182;8.734;2024-01-15T13:08:33;6.40;;;2.90;;
78013;SDS011;67222;50.182;8.734;2024-01-15T13:10:59;5.57;;;2.70;;
78013;SDS011;67222;50.182;8.734;2024-01-15T13:13:24;9.15;;;3.63;;
78013;SDS011;67222;50.182;8.734;2024-01-15T13:15:49;5.45;;;2.90;;
78013;SDS011;67222;50.182;8.734;2024-01-15T13:18:15;7.07;;;2.80;;
78013;SDS011;67222;50.182;8.734;2024-01-15T13:20:40;7.17;;;2.90;;
78013;SDS011;67222;50.182;8.734;2024-01-15T13:23:06;4.90;;;2.50;;
78013;SDS011;67222;50.182;8.734;2024-01-15T13:25:31;4.70;;;1.90;;
78013;SDS011;67222;50.182;8.734;2024-01-15T13:27:58;6.32;;;2.38;;
78013;SDS011;67222;50.182;8.734;2024-01-15T13:30:24;7.97;;;2.72;;
78013;SDS011;67222;50.182;8.734;2024-01-15T13:32:49;6.07;;;2.63;;
78013;SDS011;67222;50.182;8.734;2024-01-15T13:35:14;4.83;;;2.43;;
78013;SDS011;67222;50.182;8.734;2024-01-15T13:37:39;5.20;;;2.22;;
78013;SDS011;67222;50.182;8.734;2024-01-15T13:40:06;6.03;;;2.35;;
78013;SDS011;67222;50.182;8.734;2024-01-15T13:42:34;3.63;;;1.73;;
78013;SDS011;67222;50.182;8.734;2024-01-15T13:45:00;5.72;;;2.60;;
78013;SDS011;67222;50.182;8.734;2024-01-15T13:47:25;4.43;;;2.27;;
78013;SDS011;67222;50.182;8.734;2024-01-15T13:49:50;5.90;;;2.57;;
78013;SDS011;67222;50.182;8.734;2024-01-15T13:52:16;3.83;;;2.10;;
78013;SDS011;67222;50.182;8.734;2024-01-15T13:54:41;5.80;;;2.50;;
78013;SDS011;67222;50.182;8.734;2024-01-15T13:57:07;3.83;;;1.60;;
78013;SDS011;67222;50.182;8.734;2024-01-15T13:59:32;5.90;;;2.00;;
78013;SDS011;67222;50.182;8.734;2024-01-15T14:01:58;2.42;;;1.08;;
78013;SDS011;67222;50.182;8.734;2024-01-15T14:04:23;4.63;;;2.00;;
78013;SDS011;67222;50.182;8.734;2024-01-15T14:06:48;4.37;;;1.70;;
78013;SDS011;67222;50.182;8.734;2024-01-15T14:09:13;5.23;;;2.00;;
78013;SDS011;67222;50.182;8.734;2024-01-15T14:11:39;4.85;;;1.90;;
78013;SDS011;67222;50.182;8.734;2024-01-15T14:14:05;6.38;;;1.48;;
78013;SDS011;67222;50.182;8.734;2024-01-15T14:16:30;5.22;;;1.77;;
78013;SDS011;67222;50.182;8.734;2024-01-15T14:18:55;4.53;;;1.58;;
78013;SDS011;67222;50.182;8.734;2024-01-15T14:21:21;5.40;;;1.47;;
78013;SDS011;67222;50.182;8.734;2024-01-15T14:23:46;3.93;;;1.50;;
78013;SDS011;67222;50.182;8.734;2024-01-15T14:26:11;4.07;;;1.47;;
78013;SDS011;67222;50.182;8.734;2024-01-15T14:28:36;3.90;;;1.50;;
78013;SDS011;67222;50.182;8.734;2024-01-15T14:31:02;3.03;;;1.40;;
78013;SDS011;67222;50.182;8.734;2024-01-15T14:33:27;5.25;;;1.88;;
78013;SDS011;67222;50.182;8.734;2024-01-15T14:35:53;3.88;;;1.48;;
78013;SDS011;67222;50.182;8.734;2024-01-15T14:38:19;3.78;;;1.30;;
78013;SDS011;67222;50.182;8.734;2024-01-15T14:40:45;4.07;;;1.67;;
78013;SDS011;67222;50.182;8.734;2024-01-15T14:43:10;3.30;;;1.67;;
78013;SDS011;67222;50.182;8.734;2024-01-15T14:45:35;4.65;;;1.80;;
78013;SDS011;67222;50.182;8.734;2024-01-15T14:48:01;2.47;;;1.25;;
78013;SDS011;67222;50.182;8.734;2024-01-15T14:50:26;5.57;;;1.90;;
78013;SDS011;67222;50.182;8.734;2024-01-15T14:52:52;3.90;;;1.40;;
78013;SDS011;67222;50.182;8.734;2024-01-15T14:55:17;2.58;;;1.20;;
78013;SDS011;67222;50.182;8.734;2024-01-15T14:57:42;4.97;;;1.90;;
78013;SDS011;67222;50.182;8.734;2024-01-15T15:00:08;4.65;;;1.55;;
78013;SDS011;67222;50.182;8.734;2024-01-15T15:02:35;3.50;;;1.58;;
78013;SDS011;67222;50.182;8.734;2024-01-15T15:05:01;4.40;;;1.70;;
78013;SDS011;67222;50.182;8.734;2024-01-15T15:07:27;3.08;;;1.30;;
78013;SDS011;67222;50.182;8.734;2024-01-15T15:09:52;4.55;;;1.65;;
78013;SDS011;67222;50.182;8.734;2024-01-15T15:12:18;3.53;;;1.53;;
78013;SDS011;67222;50.182;8.734;2024-01-15T15:14:43;3.10;;;1.53;;
78013;SDS011;67222;50.182;8.734;2024-01-15T15:17:09;2.53;;;1.15;;
78013;SDS011;67222;50.182;8.734;2024-01-15T15:19:37;2.67;;;1.45;;
78013;SDS011;67222;50.182;8.734;2024-01-15T15:22:02;4.18;;;1.95;;
78013;SDS011;67222;50.182;8.734;2024-01-15T15:24:28;5.05;;;1.70;;
78013;SDS011;67222;50.182;8.734;2024-01-15T15:26:53;5.13;;;1.80;;
78013;SDS011;67222;50.182;8.734;2024-01-15T15:29:18;4.03;;;2.20;;
78013;SDS011;67222;50.182;8.734;2024-01-15T15:31:44;5.57;;;1.80;;
78013;SDS011;67222;50.182;8.734;2024-01-15T15:34:10;4.43;;;1.67;;
78013;SDS011;67222;50.182;8.734;2024-01-15T15:36:35;7.30;;;3.03;;
78013;SDS011;67222;50.182;8.734;2024-01-15T15:39:01;7.32;;;2.90;;
78013;SDS011;67222;50.182;8.734;2024-01-15T15:41:26;7.75;;;2.63;;
78013;SDS011;67222;50.182;8.734;2024-01-15T15:43:53;6.50;;;2.28;;
78013;SDS011;67222;50.182;8.734;2024-01-15T15:46:18;7.05;;;3.25;;
78013;SDS011;67222;50.182;8.734;2024-01-15T15:48:44;5.57;;;2.47;;
78013;SDS011;67222;50.182;8.734;2024-01-15T15:51:09;6.20;;;2.75;;
78013;SDS011;67222;50.182;8.734;2024-01-15T15:53:34;4.23;;;2.10;;
78013;SDS011;67222;50.182;8.734;2024-01-15T15:56:00;8.10;;;2.20;;
78013;SDS011;67222;50.182;8.734;2024-01-15T15:58:25;5.90;;;1.90;;
78013;SDS011;67222;50.182;8.734;2024-01-15T16:00:50;5.87;;;2.23;;
78013;SDS011;67222;50.182;8.734;2024-01-15T16:03:16;5.10;;;1.90;;
78013;SDS011;67222;50.182;8.734;2024-01-15T16:05:41;5.50;;;2.60;;
78013;SDS011;67222;50.182;8.734;2024-01-15T16:08:06;5.77;;;2.33;;
78013;SDS011;67222;50.182;8.734;2024-01-15T16:10:32;3.55;;;1.33;;
78013;SDS011;67222;50.182;8.734;2024-01-15T16:12:57;4.90;;;2.57;;
78013;SDS011;67222;50.182;8.734;2024-01-15T16:15:22;4.37;;;1.90;;
78013;SDS011;67222;50.182;8.734;2024-01-15T16:17:51;2.88;;;1.30;;
78013;SDS011;67222;50.182;8.734;2024-01-15T16:22:42;2.80;;;1.73;;
78013;SDS011;67222;50.182;8.734;2024-01-15T16:25:08;2.80;;;1.27;;
78013;SDS011;67222;50.182;8.734;2024-01-15T16:27:34;7.85;;;1.83;;
78013;SDS011;67222;50.182;8.734;2024-01-15T16:29:59;4.78;;;1.92;;
78013;SDS011;67222;50.182;8.734;2024-01-15T16:32:25;4.83;;;1.83;;
78013;SDS011;67222;50.182;8.734;2024-01-15T16:34:50;3.58;;;1.83;;
78013;SDS011;67222;50.182;8.734;2024-01-15T16:37:15;3.35;;;1.27;;
78013;SDS011;67222;50.182;8.734;2024-01-15T16:39:41;6.30;;;2.27;;
78013;SDS011;67222;50.182;8.734;2024-01-15T16:42:06;2.60;;;1.40;;
78013;SDS011;67222;50.182;8.734;2024-01-15T16:44:33;3.47;;;1.13;;
78013;SDS011;67222;50.182;8.734;2024-01-15T16:46:59;5.38;;;1.40;;
78013;SDS011;67222;50.182;8.734;2024-01-15T16:49:25;2.17;;;1.20;;
78013;SDS011;67222;50.182;8.734;2024-01-15T16:51:51;3.92;;;1.38;;
78013;SDS011;67222;50.182;8.734;2024-01-15T16:54:16;3.83;;;1.50;;
78013;SDS011;67222;50.182;8.734;2024-01-15T16:56:42;4.97;;;1.30;;
78013;SDS011;67222;50.182;8.734;2024-01-15T16:59:08;4.30;;;1.45;;
78013;SDS011;67222;50.182;8.734;2024-01-15T17:01:33;4.30;;;2.07;;
78013;SDS011;67222;50.182;8.734;2024-01-15T17:03:58;2.80;;;1.07;;
78013;SDS011;67222;50.182;8.734;2024-01-15T17:06:24;2.83;;;1.30;;
78013;SDS011;67222;50.182;8.734;2024-01-15T17:08:49;3.53;;;1.40;;
78013;SDS011;67222;50.182;8.734;2024-01-15T17:11:14;3.27;;;1.13;;
78013;SDS011;67222;50.182;8.734;2024-01-15T17:13:40;1.93;;;0.70;;
78013;SDS011;67222;50.182;8.734;2024-01-15T17:16:05;6.83;;;1.30;;
78013;SDS011;67222;50.182;8.734;2024-01-15T17:18:31;1.60;;;0.90;;
78013;SDS011;67222;50.182;8.734;2024-01-15T17:20:56;3.35;;;1.17;;
78013;SDS011;67222;50.182;8.734;2024-01-15T17:23:22;5.28;;;1.60;;
78013;SDS011;67222;50.182;8.734;2024-01-15T17:25:48;4.47;;;1.20;;
78013;SDS011;67222;50.182;8.734;2024-01-15T17:28:13;2.47;;;1.43;;
78013;SDS011;67222;50.182;8.734;2024-01-15T17:30:38;1.40;;;0.70;;
78013;SDS011;67222;50.182;8.734;2024-01-15T17:33:04;3.45;;;1.10;;
78013;SDS011;67222;50.182;8.734;2024-01-15T17:35:29;4.97;;;1.70;;
78013;SDS011;67222;50.182;8.734;2024-01-15T17:37:55;3.70;;;1.20;;
78013;SDS011;67222;50.182;8.734;2024-01-15T17:40:20;5.73;;;1.97;;
78013;SDS011;67222;50.182;8.734;2024-01-15T17:42:47;5.22;;;2.20;;
78013;SDS011;67222;50.182;8.734;2024-01-15T17:45:14;4.97;;;1.60;;
78013;SDS011;67222;50.182;8.734;2024-01-15T17:47:40;5.75;;;1.83;;
78013;SDS011;67222;50.182;8.734;2024-01-15T17:50:06;5.35;;;2.10;;
78013;SDS011;67222;50.182;8.734;2024-01-15T17:52:32;6.15;;;1.58;;
78013;SDS011;67222;50.182;8.734;2024-01-15T17:54:58;7.88;;;1.65;;
78013;SDS011;67222;50.182;8.734;2024-01-15T17:57:23;3.07;;;1.30;;
78013;SDS011;67222;50.182;8.734;2024-01-15T17:59:48;2.43;;;1.03;;
78013;SDS011;67222;50.182;8.734;2024-01-15T18:02:14;4.03;;;1.17;;
78013;SDS011;67222;50.182;8.734;2024-01-15T18:04:39;2.20;;;0.90;;
78013;SDS011;67222;50.182;8.734;2024-01-15T18:07:04;3.10;;;1.13;;
78013;SDS011;67222;50.182;8.734;2024-01-15T18:09:29;3.80;;;1.30;;
78013;SDS011;67222;50.182;8.734;2024-01-15T18:11:55;2.92;;;0.93;;
78013;SDS011;67222;50.182;8.734;2024-01-15T18:14:25;2.92;;;1.20;;
78013;SDS011;67222;50.182;8.734;2024-01-15T18:16:50;3.00;;;1.33;;
78013;SDS011;67222;50.182;8.734;2024-01-15T18:19:16;4.40;;;1.90;;
78013;SDS011;67222;50.182;8.734;2024-01-15T18:21:42;2.83;;;1.20;;
78013;SDS011;67222;50.182;8.734;2024-01-15T18:24:07;4.57;;;1.20;;
78013;SDS011;67222;50.182;8.734;2024-01-15T18:26:33;2.78;;;1.20;;
78013;SDS011;67222;50.182;8.734;2024-01-15T18:28:59;2.38;;;1.02;;
78013;SDS011;67222;50.182;8.734;2024-01-15T18:31:24;2.67;;;0.73;;
78013;SDS011;67222;50.182;8.734;2024-01-15T18:33:49;0.70;;;0.45;;
78013;SDS011;67222;50.182;8.734;2024-01-15T18:36:15;3.40;;;1.10;;
78013;SDS011;67222;50.182;8.734;2024-01-15T18:38:41;3.42;;;1.00;;
78013;SDS011;67222;50.182;8.734;2024-01-15T18:41:06;3.03;;;1.00;;
78013;SDS011;67222;50.182;8.734;2024-01-15T18:43:31;1.20;;;0.57;;
78013;SDS011;67222;50.182;8.734;2024-01-15T18:45:57;4.10;;;1.38;;
78013;SDS011;67222;50.182;8.734;2024-01-15T18:48:23;3.20;;;0.93;;
78013;SDS011;67222;50.182;8.734;2024-01-15T18:50:48;2.73;;;0.90;;
78013;SDS011;67222;50.182;8.734;2024-01-15T18:53:14;2.80;;;0.90;;
78013;SDS011;67222;50.182;8.734;2024-01-15T18:55:39;1.90;;;0.98;;
78013;SDS011;67222;50.182;8.734;2024-01-15T18:58:05;2.97;;;1.30;;
78013;SDS011;67222;50.182;8.734;2024-01-15T19:00:30;4.05;;;1.15;;
78013;SDS011;67222;50.182;8.734;2024-01-15T19:02:56;2.77;;;1.30;;
78013;SDS011;67222;50.182;8.734;2024-01-15T19:05:25;1.58;;;0.55;;
78013;SDS011;67222;50.182;8.734;2024-01-15T19:07:51;4.25;;;1.20;;
78013;SDS011;67222;50.182;8.734;2024-01-15T19:10:16;5.38;;;1.25;;
78013;SDS011;67222;50.182;8.734;2024-01-15T19:12:41;1.97;;;1.30;;
78013;SDS011;67222;50.182;8.734;2024-01-15T19:15:07;3.27;;;0.97;;
78013;SDS011;67222;50.182;8.734;2024-01-15T19:17:32;2.65;;;1.30;;
78013;SDS011;67222;50.182;8.734;2024-01-15T19:19:59;2.88;;;1.05;;
78013;SDS011;67222;50.182;8.734;2024-01-15T19:22:25;4.13;;;1.13;;
78013;SDS011;67222;50.182;8.734;2024-01-15T19:24:51;2.47;;;1.08;;
78013;SDS011;67222;50.182;8.734;2024-01-15T19:27:16;6.70;;;1.10;;
78013;SDS011;67222;50.182;8.734;2024-01-15T19:29:41;1.63;;;0.77;;
78013;SDS011;67222;50.182;8.734;2024-01-15T19:32:07;4.60;;;1.25;;
78013;SDS011;67222;50.182;8.734;2024-01-15T19:34:32;3.10;;;0.97;;
78013;SDS011;67222;50.182;8.734;2024-01-15T19:36:57;2.67;;;0.97;;
78013;SDS011;67222;50.182;8.734;2024-01-15T19:39:22;2.70;;;1.00;;
78013;SDS011;67222;50.182;8.734;2024-01-15T19:41:49;2.30;;;1.00;;
78013;SDS011;67222;50.182;8.734;2024-01-15T19:44:15;2.60;;;1.02;;
78013;SDS011;67222;50.182;8.734;2024-01-15T19:46:40;2.83;;;0.88;;
78013;SDS011;67222;50.182;8.734;2024-01-15T19:49:08;2.90;;;0.73;;
78013;SDS011;67222;50.182;8.734;2024-01-15T19:51:34;3.30;;;0.93;;
78013;SDS011;67222;50.182;8.734;2024-01-15T19:53:59;2.30;;;0.90;;
78013;SDS011;67222;50.182;8.734;2024-01-15T19:56:25;1.15;;;0.60;;
78013;SDS011;67222;50.182;8.734;2024-01-15T19:58:50;1.92;;;0.82;;
78013;SDS011;67222;50.182;8.734;2024-01-15T20:01:15;3.60;;;1.80;;
78013;SDS011;67222;50.182;8.734;2024-01-15T20:03:41;5.40;;;1.15;;
78013;SDS011;67222;50.182;8.734;2024-01-15T20:06:08;4.32;;;1.40;;
78013;SDS011;67222;50.182;8.734;2024-01-15T20:08:36;2.33;;;1.10;;
78013;SDS011;67222;50.182;8.734;2024-01-15T20:11:07;3.20;;;0.95;;
78013;SDS011;67222;50.182;8.734;2024-01-15T20:13:33;3.10;;;1.00;;
78013;SDS011;67222;50.182;8.734;2024-01-15T20:15:59;3.13;;;1.10;;
78013;SDS011;67222;50.182;8.734;2024-01-15T20:18:30;4.03;;;0.90;;